Terminal Aerodrome Forecast
Issued by NWS

Home | Current Version | Previous Version | Text Only | Print | Product List | Glossary On
Versions: 1 2 3 4 5 6 7 8 9 10 11 12 13 14 15 16 17 18 19 20 21 22 23 24 25 26 27 28 29 30 31
052
FTUS43 KGRB 210525
TAFATW
TAF
KATW 210525Z 2106/2206 21010KT 5SM -RA BR SCT015 OVC022
      WS010/23035KT
     FM210800 21009KT 3SM BR SCT008 OVC012
     FM211000 22007KT 3SM BR BKN005
     FM211500 27007KT P6SM SCT012 BKN250
     FM211900 22008KT P6SM FEW250=

USA.gov is the U.S. government's official web portal to all federal, state and local government web resources and services.